Time;durP1;ratioP1;P1;durP2;ratioP2;P2;SDS_P1;SDS_P2;PMS_P1;PMS_P2;Temp;Humidity;BMP_temperature;BMP_pressure;BME280_temperature;BME280_humidity;BME280_pressure;Samples;Min_cycle;Max_cycle;Signal;HPM_P1;HPM_P2
2022/09/18 00:01:36;;;;;;;12.07;6.57;;;;;;;7.45;100.00;98528.94;5115317;28;20043;-78
2022/09/18 00:04:04;;;;;;;12.57;6.53;;;;;;;7.41;100.00;98533.44;5115141;28;20023;-78
2022/09/18 00:06:33;;;;;;;14.80;6.80;;;;;;;7.39;100.00;98543.06;5115105;28;20051;-78
2022/09/18 00:09:01;;;;;;;10.13;6.60;;;;;;;7.36;100.00;98530.25;5115183;28;20016;-78
2022/09/18 00:11:31;;;;;;;14.20;7.18;;;;;;;7.36;100.00;98538.03;5115307;28;20023;-78
2022/09/18 00:13:57;;;;;;;14.23;7.20;;;;;;;7.31;100.00;98537.44;5115099;28;20024;-78
2022/09/18 00:16:24;;;;;;;17.88;7.00;;;;;;;7.22;100.00;98523.22;5114282;28;20024;-78
2022/09/18 00:18:50;;;;;;;10.48;6.65;;;;;;;7.28;100.00;98544.53;5113766;28;20417;-78
2022/09/18 00:21:19;;;;;;;10.20;6.93;;;;;;;7.24;100.00;98541.25;5115181;28;20031;-78
2022/09/18 00:23:45;;;;;;;14.60;7.18;;;;;;;7.18;100.00;98528.63;5114918;28;20027;-78
2022/09/18 00:26:13;;;;;;;7.88;6.07;;;;;;;7.26;100.00;98544.63;5114982;28;20077;-78
2022/09/18 00:28:38;;;;;;;13.45;6.85;;;;;;;7.27;100.00;98529.91;5114861;28;20020;-78
2022/09/18 00:31:15;;;;;;;11.85;6.15;;;;;;;7.32;100.00;98535.69;5114614;28;20364;-78
2022/09/18 00:33:41;;;;;;;13.02;6.32;;;;;;;7.33;100.00;98542.53;5114979;28;20022;-78
2022/09/18 00:36:11;;;;;;;10.20;5.88;;;;;;;7.20;100.00;98521.59;5114783;28;20103;-78
2022/09/18 00:38:36;;;;;;;11.35;6.50;;;;;;;7.23;100.00;98543.00;5114801;28;20498;-78
2022/09/18 00:41:06;;;;;;;11.30;7.05;;;;;;;7.16;100.00;98523.53;5114529;28;20024;-78
2022/09/18 00:43:34;;;;;;;9.03;6.03;;;;;;;7.22;100.00;98525.78;5114619;28;20022;-78
2022/09/18 00:46:22;;;;;;;13.32;6.75;;;;;;;7.25;100.00;98528.25;5114523;28;20019;-78
2022/09/18 00:49:12;;;;;;;13.57;6.80;;;;;;;7.28;100.00;98527.22;5071109;28;20036;-78
2022/09/18 00:51:39;;;;;;;12.30;6.53;;;;;;;7.17;100.00;98512.25;5071395;28;20052;-78
2022/09/18 00:54:27;;;;;;;10.23;6.03;;;;;;;7.29;100.00;98533.25;5071091;28;20746;-78
2022/09/18 00:56:56;;;;;;;14.57;6.00;;;;;;;7.26;100.00;98529.06;5071045;28;20481;-78
2022/09/18 00:59:26;;;;;;;8.85;5.55;;;;;;;7.25;100.00;98530.81;5071256;28;20048;-77
2022/09/18 01:01:54;;;;;;;11.20;5.75;;;;;;;7.19;100.00;98520.75;5070917;28;20060;-78
2022/09/18 01:04:19;;;;;;;7.45;5.15;;;;;;;7.17;100.00;98521.78;5070898;28;20024;-78
2022/09/18 01:07:02;;;;;;;12.95;5.32;;;;;;;7.24;100.00;98528.28;5070906;28;20094;-78
2022/09/18 01:09:35;;;;;;;13.00;5.72;;;;;;;7.27;100.00;98529.91;5071083;28;20108;-78
2022/09/18 01:12:28;;;;;;;11.00;5.97;;;;;;;7.34;100.00;98528.69;5070822;28;20127;-78
2022/09/18 01:15:08;;;;;;;10.80;6.07;;;;;;;7.36;100.00;98519.06;5070788;28;20033;-78
2022/09/18 01:17:55;;;;;;;12.70;6.47;;;;;;;7.46;100.00;98531.47;5070860;28;20078;-78
2022/09/18 01:20:44;;;;;;;9.05;5.97;;;;;;;7.50;100.00;98524.38;5070852;28;20043;-78
2022/09/18 01:23:36;;;;;;;15.50;6.40;;;;;;;7.55;100.00;98524.16;5070676;28;20118;-78
2022/09/18 01:26:23;;;;;;;10.45;5.70;;;;;;;7.63;100.00;98524.59;5096036;28;20051;-78
2022/09/18 01:28:59;;;;;;;10.90;5.30;;;;;;;7.64;100.00;98511.53;5113494;28;20030;-78
2022/09/18 01:31:55;;;;;;;6.93;4.55;;;;;;;7.78;100.00;98528.94;5113663;27;20089;-78
2022/09/18 01:34:33;;;;;;;10.43;4.75;;;;;;;7.78;100.00;98520.34;5070560;28;20129;-78
2022/09/18 01:37:13;;;;;;;7.78;4.90;;;;;;;7.87;100.00;98523.25;5070685;28;20385;-78
2022/09/18 01:39:53;;;;;;;10.00;4.73;;;;;;;7.94;100.00;98519.44;5070453;28;20541;-78
2022/09/18 01:42:22;;;;;;;8.60;4.57;;;;;;;7.98;100.00;98525.28;5070483;28;20020;-78
2022/09/18 01:44:52;;;;;;;10.32;4.55;;;;;;;8.03;100.00;98523.28;5069991;28;20118;-78
2022/09/18 01:47:21;;;;;;;9.07;4.07;;;;;;;7.97;100.00;98516.69;5070357;28;20070;-78
2022/09/18 01:49:48;;;;;;;8.23;4.05;;;;;;;8.08;100.00;98523.03;5070150;28;20031;-78
2022/09/18 01:52:25;;;;;;;9.43;4.78;;;;;;;8.12;100.00;98521.94;5069978;28;20123;-78
2022/09/18 01:54:54;;;;;;;9.23;4.20;;;;;;;8.14;100.00;98520.13;5069938;28;20136;-78
2022/09/18 01:57:25;;;;;;;8.73;3.78;;;;;;;8.17;100.00;98523.34;5070369;28;20044;-78
2022/09/18 02:00:07;;;;;;;9.27;4.10;;;;;;;8.22;100.00;98523.13;5069834;28;20409;-78
2022/09/18 02:02:48;;;;;;;6.43;3.28;;;;;;;8.22;100.00;98517.94;5069977;28;20489;-78
2022/09/18 02:05:20;;;;;;;7.13;3.58;;;;;;;8.27;100.00;98521.13;5069787;28;20553;-78
2022/09/18 02:08:22;;;;;;;7.50;3.65;;;;;;;8.32;100.00;98524.28;5069958;28;20017;-78
2022/09/18 02:10:53;;;;;;;9.88;3.78;;;;;;;8.30;100.00;98513.16;5086058;28;20472;-78
2022/09/18 02:13:30;;;;;;;7.40;3.35;;;;;;;8.35;100.00;98505.13;5111485;28;20367;-78
2022/09/18 02:16:01;;;;;;;5.78;3.53;;;;;;;8.45;100.00;98521.88;5112758;28;20023;-78
2022/09/18 02:18:36;;;;;;;5.22;3.03;;;;;;;8.40;100.00;98506.56;5113224;28;20116;-78
2022/09/18 02:21:05;;;;;;;6.50;2.90;;;;;;;8.42;100.00;98503.88;5112759;28;20032;-78
2022/09/18 02:23:32;;;;;;;4.22;2.65;;;;;;;8.48;100.00;98517.34;5112919;28;20031;-78
2022/09/18 02:26:03;;;;;;;4.38;2.80;;;;;;;8.51;100.00;98511.13;5112586;28;20053;-78
2022/09/18 02:28:30;;;;;;;4.63;2.75;;;;;;;8.49;100.00;98511.22;5112716;28;20019;-78
2022/09/18 02:30:57;;;;;;;4.35;2.47;;;;;;;8.49;100.00;98502.63;5112406;28;20372;-78
2022/09/18 02:33:34;;;;;;;5.70;2.70;;;;;;;8.53;100.00;98496.34;5112662;28;20520;-78
2022/09/18 02:36:09;;;;;;;5.07;2.72;;;;;;;8.63;100.00;98512.22;5112555;28;20032;-78
2022/09/18 02:38:43;;;;;;;5.45;2.85;;;;;;;8.56;100.00;98492.75;5112275;28;20288;-78
2022/09/18 02:41:17;;;;;;;7.93;2.80;;;;;;;8.58;100.00;98486.50;5112385;28;20032;-78
2022/09/18 02:43:46;;;;;;;6.55;2.45;;;;;;;8.66;100.00;98491.28;5112559;28;20071;-78
2022/09/18 02:46:34;;;;;;;4.65;2.47;;;;;;;8.65;100.00;98492.22;5112237;28;20395;-78
2022/09/18 02:49:21;;;;;;;5.35;2.10;;;;;;;8.68;100.00;98495.47;5112190;28;20020;-78
2022/09/18 02:52:14;;;;;;;5.30;2.53;;;;;;;8.69;100.00;98489.34;5112357;28;20059;-78
2022/09/18 02:54:48;;;;;;;2.40;2.10;;;;;;;8.65;100.00;98472.28;5069114;28;20174;-78
2022/09/18 02:57:24;;;;;;;5.30;2.35;;;;;;;8.68;100.00;98481.63;5069105;28;20032;-78
2022/09/18 02:59:56;;;;;;;3.25;2.20;;;;;;;8.71;100.00;98487.47;5069556;28;20036;-78
2022/09/18 03:02:22;;;;;;;2.78;2.08;;;;;;;8.75;100.00;98488.97;5069166;28;20056;-78
2022/09/18 03:04:48;;;;;;;3.25;2.03;;;;;;;8.74;100.00;98479.53;5068928;28;20051;-78
2022/09/18 03:07:14;;;;;;;4.45;2.13;;;;;;;8.71;100.00;98476.28;5068951;28;20139;-78
2022/09/18 03:09:41;;;;;;;4.90;1.90;;;;;;;8.76;100.00;98476.81;5069068;28;20517;-78
2022/09/18 03:12:07;;;;;;;2.17;1.83;;;;;;;8.75;100.00;98481.19;5068887;28;20028;-78
2022/09/18 03:14:33;;;;;;;3.05;2.17;;;;;;;8.80;100.00;98478.31;5069120;28;20025;-78
2022/09/18 03:16:58;;;;;;;2.03;1.80;;;;;;;8.75;100.00;98473.41;5068829;28;20170;-78
2022/09/18 03:19:23;;;;;;;3.08;1.70;;;;;;;8.77;100.00;98470.75;5069052;28;20044;-78
2022/09/18 03:21:50;;;;;;;4.05;1.60;;;;;;;8.80;100.00;98469.72;5069054;28;20069;-78
2022/09/18 03:24:15;;;;;;;5.85;1.90;;;;;;;8.87;100.00;98484.84;5069035;28;20037;-78
2022/09/18 03:26:40;;;;;;;2.60;1.80;;;;;;;8.88;100.00;98480.47;5069135;28;20097;-78
2022/09/18 03:29:07;;;;;;;4.10;1.70;;;;;;;8.90;100.00;98489.03;5068744;28;20096;-78
2022/09/18 03:31:33;;;;;;;2.00;1.75;;;;;;;8.92;100.00;98489.75;5092659;28;20031;-78
2022/09/18 03:33:58;;;;;;;3.63;1.95;;;;;;;8.90;100.00;98483.84;5111655;28;20464;-78
2022/09/18 03:36:24;;;;;;;2.08;1.77;;;;;;;8.89;100.00;98474.34;5111885;28;20020;-78
2022/09/18 03:38:49;;;;;;;2.30;1.67;;;;;;;8.93;100.00;98486.22;5111817;28;20027;-78
2022/09/18 03:41:14;;;;;;;1.92;1.52;;;;;;;8.88;100.00;98478.72;5111775;28;20019;-78
2022/09/18 03:43:40;;;;;;;2.30;1.80;;;;;;;8.91;100.00;98475.13;5112228;28;20024;-78
2022/09/18 03:46:06;;;;;;;1.80;1.70;;;;;;;8.89;100.00;98464.84;5111624;28;20061;-78
2022/09/18 03:48:31;;;;;;;3.80;1.70;;;;;;;8.91;100.00;98462.97;5111824;28;20107;-78
2022/09/18 03:50:56;;;;;;;2.10;1.65;;;;;;;8.90;100.00;98474.28;5113330;28;20037;-78
2022/09/18 03:53:22;;;;;;;2.20;1.90;;;;;;;8.97;100.00;98480.81;5115931;27;20034;-78
2022/09/18 03:55:49;;;;;;;2.22;1.95;;;;;;;8.96;100.00;98476.50;5114527;28;20069;-78
2022/09/18 03:58:14;;;;;;;2.90;1.85;;;;;;;8.97;100.00;98478.19;5115502;28;20042;-78
2022/09/18 04:00:40;;;;;;;3.85;2.10;;;;;;;8.92;100.00;98464.63;5115383;28;20110;-78
2022/09/18 04:03:06;;;;;;;2.85;2.20;;;;;;;8.96;100.00;98468.72;5115292;28;20028;-78
2022/09/18 04:05:31;;;;;;;5.45;2.35;;;;;;;8.99;100.00;98476.34;5115613;28;20092;-78
2022/09/18 04:07:57;;;;;;;3.88;2.40;;;;;;;8.90;100.00;98460.47;5115298;28;20103;-78
2022/09/18 04:10:22;;;;;;;4.80;2.47;;;;;;;8.95;100.00;98461.88;5115410;28;20027;-78
2022/09/18 04:12:47;;;;;;;4.43;2.40;;;;;;;8.93;100.00;98471.53;5115665;28;20111;-78
2022/09/18 04:15:15;;;;;;;4.03;2.55;;;;;;;8.91;100.00;98470.75;5115016;28;20051;-78
2022/09/18 04:17:41;;;;;;;2.85;2.38;;;;;;;8.91;100.00;98478.53;5115107;28;20057;-78
2022/09/18 04:20:07;;;;;;;3.55;2.20;;;;;;;8.91;100.00;98480.31;5114813;28;20019;-78
2022/09/18 04:22:33;;;;;;;3.88;2.10;;;;;;;8.73;100.00;98456.25;5115084;28;20072;-78
2022/09/18 04:24:58;;;;;;;3.08;2.28;;;;;;;8.77;100.00;98480.28;5114972;28;20023;-78
2022/09/18 04:27:23;;;;;;;4.07;2.38;;;;;;;8.66;100.00;98473.09;5115113;27;20095;-78
2022/09/18 04:29:49;;;;;;;2.38;2.17;;;;;;;8.67;100.00;98478.19;5114771;28;20114;-78
2022/09/18 04:32:14;;;;;;;2.50;2.00;;;;;;;8.69;100.00;98476.38;5114942;28;20346;-78
2022/09/18 04:34:39;;;;;;;3.03;2.22;;;;;;;8.73;100.00;98487.41;5114702;28;20112;-78
2022/09/18 04:37:05;;;;;;;2.33;2.03;;;;;;;8.66;100.00;98466.16;5114713;28;20019;-78
2022/09/18 04:39:31;;;;;;;2.83;2.25;;;;;;;8.80;100.00;98480.09;5114890;28;20020;-78
2022/09/18 04:41:58;;;;;;;2.72;2.40;;;;;;;8.79;100.00;98484.44;5114769;28;20046;-78
2022/09/18 04:44:23;;;;;;;4.70;2.28;;;;;;;8.81;100.00;98482.63;5114735;28;20464;-78
2022/09/18 04:46:49;;;;;;;3.28;2.10;;;;;;;8.89;100.00;98489.94;5114560;28;20025;-78
2022/09/18 04:49:14;;;;;;;4.13;2.13;;;;;;;8.89;100.00;98490.78;5114237;27;20023;-78
2022/09/18 04:51:39;;;;;;;4.78;2.45;;;;;;;8.92;100.00;98492.38;5114728;28;20440;-78
2022/09/18 04:54:05;;;;;;;3.13;2.25;;;;;;;8.94;100.00;98496.56;5114172;28;20054;-78
2022/09/18 04:56:30;;;;;;;4.20;2.30;;;;;;;8.98;100.00;98499.81;5114539;28;20016;-78
2022/09/18 04:58:55;;;;;;;3.38;2.47;;;;;;;8.92;100.00;98485.41;5114478;28;20124;-78
2022/09/18 05:01:21;;;;;;;9.15;2.65;;;;;;;8.92;100.00;98490.59;5113706;27;20068;-78
2022/09/18 05:03:46;;;;;;;2.50;2.10;;;;;;;8.94;100.00;98491.34;5114438;28;20032;-78
2022/09/18 05:06:12;;;;;;;2.35;2.00;;;;;;;9.02;100.00;98500.44;5114403;28;20069;-78
2022/09/18 05:08:37;;;;;;;3.35;2.30;;;;;;;8.97;100.00;98504.19;5114536;27;20051;-78
2022/09/18 05:11:03;;;;;;;3.42;2.03;;;;;;;9.04;100.00;98511.59;5114236;28;20034;-78
2022/09/18 05:13:29;;;;;;;2.63;1.88;;;;;;;9.01;100.00;98499.63;5114421;28;20015;-78
2022/09/18 05:15:55;;;;;;;2.30;2.10;;;;;;;9.00;100.00;98514.38;5114286;28;20425;-78
2022/09/18 05:18:21;;;;;;;2.20;1.90;;;;;;;9.03;100.00;98505.56;5114187;28;20368;-78
2022/09/18 05:20:47;;;;;;;2.97;1.80;;;;;;;9.04;100.00;98496.84;5114015;28;20042;-78
2022/09/18 05:23:13;;;;;;;2.55;1.70;;;;;;;9.12;100.00;98509.38;5114064;28;20429;-78
2022/09/18 05:25:38;;;;;;;3.38;1.85;;;;;;;9.12;100.00;98502.44;5114099;28;20055;-78
2022/09/18 05:28:04;;;;;;;2.10;1.90;;;;;;;9.15;100.00;98504.03;5113721;28;20492;-78
2022/09/18 05:30:30;;;;;;;2.70;1.58;;;;;;;9.21;100.00;98506.25;5113882;28;20020;-78
2022/09/18 05:33:01;;;;;;;1.75;1.65;;;;;;;9.20;100.00;98499.38;5113749;28;20016;-78
2022/09/18 05:35:29;;;;;;;2.33;1.60;;;;;;;9.22;100.00;98498.34;5113786;28;20114;-78
2022/09/18 05:37:55;;;;;;;1.38;1.27;;;;;;;9.30;100.00;98510.88;5113947;28;20106;-78
2022/09/18 05:40:22;;;;;;;1.30;1.30;;;;;;;9.30;100.00;98508.28;5113407;28;20026;-78
2022/09/18 05:42:49;;;;;;;1.52;1.50;;;;;;;9.28;100.00;98498.94;5113756;28;20036;-78
2022/09/18 05:45:15;;;;;;;2.40;1.60;;;;;;;9.35;100.00;98508.00;5113477;28;20028;-78
2022/09/18 05:47:41;;;;;;;2.20;1.73;;;;;;;9.24;100.00;98491.31;5113467;28;20016;-78
2022/09/18 05:50:08;;;;;;;1.60;1.50;;;;;;;9.28;100.00;98498.94;5113380;27;20169;-78
2022/09/18 05:52:34;;;;;;;2.67;1.80;;;;;;;9.29;100.00;98503.19;5113542;28;20027;-78
2022/09/18 05:54:59;;;;;;;2.17;1.75;;;;;;;9.34;100.00;98501.97;5113468;28;20019;-78
2022/09/18 05:57:24;;;;;;;1.65;1.55;;;;;;;9.21;100.00;98475.06;5113199;28;20045;-78
2022/09/18 05:59:50;;;;;;;1.70;1.60;;;;;;;9.46;100.00;98506.44;5113355;27;20015;-78
2022/09/18 06:02:15;;;;;;;1.73;1.63;;;;;;;9.55;100.00;98499.03;5113125;28;20057;-78
2022/09/18 06:04:41;;;;;;;1.60;1.52;;;;;;;9.67;100.00;98508.69;5113076;28;20126;-78
2022/09/18 06:07:06;;;;;;;2.30;1.48;;;;;;;9.74;100.00;98503.00;5113144;28;20176;-78
2022/09/18 06:09:32;;;;;;;1.75;1.65;;;;;;;9.74;100.00;98494.38;5113192;28;20407;-78
2022/09/18 06:11:57;;;;;;;1.70;1.60;;;;;;;9.86;100.00;98504.03;5113140;28;20027;-78
2022/09/18 06:14:23;;;;;;;2.08;1.60;;;;;;;9.90;100.00;98497.69;5112223;28;20094;-78
2022/09/18 06:16:48;;;;;;;1.70;1.60;;;;;;;10.08;100.00;98511.31;5112928;28;20360;-78
2022/09/18 06:19:14;;;;;;;2.67;1.88;;;;;;;10.22;100.00;98494.84;5112598;28;20573;-78
2022/09/18 06:21:40;;;;;;;2.50;2.03;;;;;;;10.48;100.00;98495.78;5112890;28;20096;-78
2022/09/18 06:24:06;;;;;;;6.35;2.90;;;;;;;10.65;100.00;98492.91;5112879;28;20020;-78
2022/09/18 06:26:32;;;;;;;3.20;2.80;;;;;;;10.88;100.00;98508.84;5113035;28;20035;-78
2022/09/18 06:28:57;;;;;;;3.60;2.70;;;;;;;10.89;100.00;98494.88;5112780;28;20031;-78
2022/09/18 06:31:22;;;;;;;3.28;2.97;;;;;;;10.86;100.00;98516.72;5112505;28;20042;-78
2022/09/18 06:33:48;;;;;;;4.88;3.42;;;;;;;10.71;100.00;98515.16;5112965;28;20376;-78
2022/09/18 06:36:13;;;;;;;3.80;2.75;;;;;;;10.56;100.00;98510.91;5112457;28;20081;-78
2022/09/18 06:38:39;;;;;;;4.53;2.90;;;;;;;10.43;100.00;98505.66;5112672;28;20022;-78
2022/09/18 06:41:04;;;;;;;3.20;2.90;;;;;;;10.48;100.00;98520.06;5112619;28;20028;-78
2022/09/18 06:43:30;;;;;;;5.25;2.70;;;;;;;10.47;100.00;98522.75;5112329;28;20016;-78
2022/09/18 06:45:56;;;;;;;3.40;3.05;;;;;;;10.44;100.00;98518.56;5112275;28;20020;-78
2022/09/18 06:48:23;;;;;;;4.70;3.00;;;;;;;10.42;100.00;98517.84;5112304;28;20106;-78
2022/09/18 06:50:56;;;;;;;3.17;2.88;;;;;;;10.42;100.00;98523.06;5112424;28;20019;-78
2022/09/18 06:53:23;;;;;;;3.55;3.15;;;;;;;10.30;100.00;98518.63;5112289;28;20023;-78
2022/09/18 06:55:49;;;;;;;3.47;3.13;;;;;;;10.27;100.00;98508.41;5112515;28;20020;-78
2022/09/18 06:58:16;;;;;;;6.15;3.70;;;;;;;10.40;100.00;98519.72;5112227;28;20028;-78
2022/09/18 07:00:42;;;;;;;6.25;4.15;;;;;;;10.49;100.00;98507.88;5112720;28;20027;-78
2022/09/18 07:03:08;;;;;;;6.75;3.50;;;;;;;10.67;100.00;98509.31;5112352;28;20098;-78
2022/09/18 07:05:33;;;;;;;5.53;3.80;;;;;;;10.85;100.00;98516.84;5112338;28;20131;-78
2022/09/18 07:07:59;;;;;;;4.65;3.97;;;;;;;10.88;100.00;98517.47;5112306;28;20015;-78
2022/09/18 07:10:25;;;;;;;4.35;3.95;;;;;;;10.93;100.00;98514.56;5112071;28;20118;-78
2022/09/18 07:12:58;;;;;;;6.75;3.97;;;;;;;11.05;100.00;98503.34;5112342;28;20425;-78
2022/09/18 07:15:24;;;;;;;5.88;3.92;;;;;;;11.35;100.00;98520.44;5112259;28;20023;-78
2022/09/18 07:17:51;;;;;;;4.45;3.38;;;;;;;11.47;100.00;98512.63;5112328;28;20019;-78
2022/09/18 07:20:17;;;;;;;7.28;3.38;;;;;;;11.70;100.00;98518.03;5112159;28;20372;-78
2022/09/18 07:22:51;;;;;;;5.47;3.80;;;;;;;11.82;100.00;98532.00;5112305;28;20098;-78
2022/09/18 07:25:16;;;;;;;6.00;3.92;;;;;;;11.80;100.00;98526.91;5114427;28;20453;-78
2022/09/18 07:27:42;;;;;;;4.57;3.65;;;;;;;12.26;100.00;98501.94;5116263;28;20026;-78
2022/09/18 07:30:07;;;;;;;5.68;3.50;;;;;;;12.98;100.00;98524.50;5116011;28;20020;-78
2022/09/18 07:32:34;;;;;;;3.83;3.17;;;;;;;12.87;100.00;98536.69;5116210;28;20015;-78
2022/09/18 07:35:00;;;;;;;3.67;3.38;;;;;;;12.70;100.00;98536.13;5116286;28;20032;-79
2022/09/18 07:37:25;;;;;;;5.95;3.63;;;;;;;12.60;100.00;98526.47;5115972;27;20022;-78
2022/09/18 07:39:50;;;;;;;3.92;3.45;;;;;;;12.81;100.00;98524.06;5116153;28;20055;-78
2022/09/18 07:42:16;;;;;;;3.80;3.40;;;;;;;12.66;100.00;98516.41;5115826;28;20038;-78
2022/09/18 07:44:41;;;;;;;4.45;2.88;;;;;;;12.55;100.00;98523.34;5116373;28;20020;-78
2022/09/18 07:47:07;;;;;;;3.70;3.15;;;;;;;12.44;100.00;98538.03;5116094;28;20035;-78
2022/09/18 07:49:32;;;;;;;4.03;3.20;;;;;;;12.46;100.00;98533.53;5115770;28;20561;-78
2022/09/18 07:51:58;;;;;;;4.13;2.92;;;;;;;12.34;100.00;98538.78;5115908;27;20046;-78
2022/09/18 07:54:23;;;;;;;3.17;2.88;;;;;;;12.22;100.00;98523.06;5115642;28;20349;-78
2022/09/18 07:56:49;;;;;;;3.40;3.08;;;;;;;12.17;100.00;98524.31;5114739;28;20015;-78
2022/09/18 07:59:15;;;;;;;2.60;2.40;;;;;;;12.16;100.00;98540.94;5114154;28;20620;-78
2022/09/18 08:01:40;;;;;;;2.63;2.30;;;;;;;12.15;100.00;98532.28;5107796;28;20031;-78
2022/09/18 08:04:06;;;;;;;2.65;2.45;;;;;;;12.38;100.00;98533.22;5115123;28;20114;-78
2022/09/18 08:06:32;;;;;;;3.28;2.38;;;;;;;12.49;100.00;98541.13;5116343;27;20043;-78
2022/09/18 08:08:57;;;;;;;4.97;2.42;;;;;;;12.40;100.00;98538.38;5132897;27;20034;-78
2022/09/18 08:11:23;;;;;;;2.50;2.30;;;;;;;12.29;100.00;98543.50;5114637;28;20074;-78
2022/09/18 08:13:49;;;;;;;2.33;2.10;;;;;;;12.28;100.00;98550.50;5122061;27;20015;-78
2022/09/18 08:16:15;;;;;;;2.42;2.22;;;;;;;12.17;100.00;98548.66;5135327;27;20039;-79
2022/09/18 08:18:41;;;;;;;3.10;2.53;;;;;;;12.00;100.00;98543.78;5135712;27;20015;-78
2022/09/18 08:21:07;;;;;;;3.13;2.20;;;;;;;11.95;100.00;98557.16;5135973;27;20027;-78
2022/09/18 08:23:33;;;;;;;1.92;1.75;;;;;;;11.83;100.00;98562.38;5117787;27;20155;-79
2022/09/18 08:26:03;;;;;;;2.00;1.80;;;;;;;11.72;100.00;98556.13;5114683;28;20032;-78
2022/09/18 08:28:29;;;;;;;1.52;1.42;;;;;;;11.63;100.00;98563.72;5112502;28;20395;-78
2022/09/18 08:30:58;;;;;;;1.55;1.45;;;;;;;11.56;100.00;98554.66;5104324;28;20024;-78
2022/09/18 08:33:24;;;;;;;2.35;1.88;;;;;;;11.46;100.00;98562.25;5099342;28;20069;-79
2022/09/18 08:35:49;;;;;;;3.67;2.08;;;;;;;11.38;100.00;98556.75;5093591;28;20411;-79
2022/09/18 08:38:15;;;;;;;3.50;2.40;;;;;;;11.41;100.00;98578.22;5093601;28;20031;-79
2022/09/18 08:41:01;;;;;;;3.28;2.67;;;;;;;11.43;100.00;98571.13;5129025;27;20027;-79
2022/09/18 08:43:28;;;;;;;3.38;2.20;;;;;;;11.39;100.00;98576.66;5134754;27;20060;-78
2022/09/18 08:46:01;;;;;;;2.22;1.90;;;;;;;11.29;100.00;98586.00;5133742;27;20380;-78
2022/09/18 08:48:33;;;;;;;2.55;1.80;;;;;;;11.20;100.00;98577.03;5134682;27;20106;-78
2022/09/18 08:51:05;;;;;;;2.10;1.90;;;;;;;11.15;100.00;98572.13;5134732;27;20072;-78
2022/09/18 08:53:39;;;;;;;2.45;1.90;;;;;;;11.15;100.00;98585.16;5134722;27;20026;-78
2022/09/18 08:56:13;;;;;;;2.40;2.00;;;;;;;11.03;100.00;98578.16;5135009;27;20110;-78
2022/09/18 08:58:45;;;;;;;1.92;1.60;;;;;;;10.96;100.00;98582.94;5135052;27;20475;-78
2022/09/18 09:01:16;;;;;;;4.07;2.42;;;;;;;10.99;100.00;98584.50;5134441;27;20588;-78
2022/09/18 09:03:59;;;;;;;2.85;2.40;;;;;;;10.93;100.00;98596.16;5135023;27;20019;-79
2022/09/18 09:06:36;;;;;;;4.55;2.78;;;;;;;10.91;100.00;98602.38;5134723;27;20039;-78
2022/09/18 09:09:36;;;;;;;3.92;2.40;;;;;;;10.91;100.00;98595.44;5134547;27;20047;-78
2022/09/18 09:12:22;;;;;;;3.65;2.00;;;;;;;10.88;100.00;98590.41;5134394;27;20337;-78
2022/09/18 09:14:48;;;;;;;4.20;2.20;;;;;;;10.92;100.00;98604.91;5116767;27;20024;-78
2022/09/18 09:17:39;;;;;;;3.17;1.90;;;;;;;10.92;100.00;98594.50;5113715;28;20536;-78
2022/09/18 09:20:22;;;;;;;3.40;2.10;;;;;;;10.93;100.00;98610.97;5113926;28;20038;-78
2022/09/18 09:23:09;;;;;;;2.80;2.00;;;;;;;10.96;100.00;98616.81;5113982;28;20020;-78
2022/09/18 09:25:40;;;;;;;3.20;2.17;;;;;;;11.08;100.00;98617.78;5113611;28;20382;-78
2022/09/18 09:28:27;;;;;;;3.60;2.13;;;;;;;11.16;100.00;98618.09;5113707;28;20012;-78
2022/09/18 09:30:59;;;;;;;2.80;1.88;;;;;;;11.14;100.00;98603.50;5113624;28;20619;-78
2022/09/18 09:33:32;;;;;;;2.95;1.90;;;;;;;11.30;100.00;98616.38;5113334;28;20026;-78
2022/09/18 09:36:11;;;;;;;3.42;2.10;;;;;;;11.33;100.00;98627.41;5113902;28;20055;-78
2022/09/18 09:38:47;;;;;;;5.50;2.30;;;;;;;11.29;100.00;98631.16;5113103;28;20090;-78
2022/09/18 09:41:19;;;;;;;5.50;1.88;;;;;;;11.23;100.00;98655.03;5113240;28;20028;-78
2022/09/18 09:43:57;;;;;;;5.18;2.20;;;;;;;11.16;100.00;98625.09;5113474;28;20563;-78
2022/09/18 09:47:02;;;;;;;6.15;2.22;;;;;;;11.24;100.00;98639.28;5113328;28;20464;-78
2022/09/18 09:50:01;;;;;;;5.93;2.35;;;;;;;11.24;100.00;98639.28;5111957;28;20019;-78
2022/09/18 09:52:28;;;;;;;6.00;2.45;;;;;;;11.16;100.00;98646.75;5113043;28;20639;-78
2022/09/18 09:55:23;;;;;;;6.80;2.40;;;;;;;11.28;100.00;98652.13;5112150;28;20241;-78
2022/09/18 09:58:05;;;;;;;5.50;2.90;;;;;;;11.28;100.00;98658.16;5070043;28;20036;-78
2022/09/18 10:00:45;;;;;;;4.28;2.45;;;;;;;11.26;100.00;98659.22;5069913;28;20039;-78
2022/09/18 10:03:47;;;;;;;7.15;2.90;;;;;;;11.24;100.00;98665.34;5069952;28;20068;-78
2022/09/18 10:06:36;;;;;;;6.63;2.50;;;;;;;11.16;100.00;98670.22;5069888;28;20067;-78
2022/09/18 10:09:07;;;;;;;8.82;2.90;;;;;;;11.08;100.00;98669.03;5070192;28;20045;-78
2022/09/18 10:11:36;;;;;;;7.07;3.30;;;;;;;11.12;100.00;98673.13;5069395;28;20024;-78
2022/09/18 10:14:12;;;;;;;7.03;3.67;;;;;;;11.06;100.00;98657.91;5080572;28;20020;-78
2022/09/18 10:16:44;;;;;;;6.15;3.38;;;;;;;11.04;100.00;98678.84;5089791;28;20028;-78
2022/09/18 10:19:15;;;;;;;8.90;3.55;;;;;;;10.97;100.00;98673.19;5089749;28;20024;-78
2022/09/18 10:21:42;;;;;;;7.57;3.90;;;;;;;11.07;100.00;98683.84;5089657;28;20028;-78
2022/09/18 10:24:08;;;;;;;7.25;3.20;;;;;;;11.15;100.00;98689.41;5089763;28;20068;-78
2022/09/18 10:26:58;;;;;;;7.78;3.40;;;;;;;11.19;100.00;98682.22;5089560;28;20540;-78
2022/09/18 10:29:24;;;;;;;7.07;3.67;;;;;;;11.30;100.00;98682.38;5089133;28;20496;-78
2022/09/18 10:31:50;;;;;;;6.57;3.08;;;;;;;11.50;100.00;98701.91;5089671;28;20024;-78
2022/09/18 10:34:33;;;;;;;12.07;6.68;;;;;;;11.57;100.00;98702.38;5103358;27;20066;-78
2022/09/18 10:36:59;;;;;;;11.55;6.32;;;;;;;11.56;100.00;98713.75;5132925;27;20019;-79
2022/09/18 10:39:33;;;;;;;8.82;5.95;;;;;;;11.41;100.00;98697.31;5132426;27;20027;-78
2022/09/18 10:42:01;;;;;;;8.52;6.72;;;;;;;11.27;100.00;98713.84;5133165;27;20030;-78
2022/09/18 10:44:38;;;;;;;7.82;3.38;;;;;;;11.22;100.00;98716.75;5132409;27;20028;-78
2022/09/18 10:47:09;;;;;;;10.57;3.90;;;;;;;11.25;100.00;98718.34;5132899;27;20023;-78
2022/09/18 10:49:39;;;;;;;11.05;5.45;;;;;;;11.27;100.00;98715.63;5132456;27;20072;-78
2022/09/18 10:52:14;;;;;;;10.00;4.77;;;;;;;11.38;100.00;98726.22;5132779;27;20019;-78
2022/09/18 10:54:39;;;;;;;14.32;9.02;;;;;;;11.37;100.00;98720.13;5132911;27;20269;-78
2022/09/18 10:57:29;;;;;;;7.80;3.72;;;;;;;11.51;100.00;98734.06;5132757;27;20019;-79
2022/09/18 10:59:54;;;;;;;9.85;4.22;;;;;;;11.47;100.00;98734.25;5132239;27;20031;-78
2022/09/18 11:02:23;;;;;;;11.00;4.80;;;;;;;11.46;100.00;98737.81;5132111;27;20023;-79
2022/09/18 11:04:49;;;;;;;9.15;3.47;;;;;;;11.48;100.00;98735.09;5132498;27;20039;-79
2022/09/18 11:07:16;;;;;;;12.90;5.63;;;;;;;11.49;100.00;98736.75;5132608;27;20034;-78
2022/09/18 11:09:42;;;;;;;8.07;3.40;;;;;;;11.43;100.00;98730.19;5132502;27;20339;-79
2022/09/18 11:12:20;;;;;;;11.20;4.05;;;;;;;11.44;100.00;98725.81;5132534;27;20487;-78
2022/09/18 11:14:57;;;;;;;11.52;3.97;;;;;;;11.49;100.00;98734.16;5114528;27;20047;-79
2022/09/18 11:17:27;;;;;;;9.48;4.25;;;;;;;11.64;100.00;98724.50;5111867;28;20477;-78
2022/09/18 11:19:58;;;;;;;8.55;4.22;;;;;;;11.83;100.00;98730.19;5112111;28;20601;-79
2022/09/18 11:22:42;;;;;;;13.90;5.32;;;;;;;12.04;100.00;98740.16;5111653;28;20020;-79
2022/09/18 11:25:13;;;;;;;10.85;4.88;;;;;;;12.30;100.00;98736.59;5111758;28;20024;-79
2022/09/18 11:27:47;;;;;;;14.75;5.40;;;;;;;12.46;100.00;98736.38;5111691;28;20027;-79
2022/09/18 11:30:15;;;;;;;15.65;8.35;;;;;;;12.55;100.00;98730.53;5111974;28;20134;-79
2022/09/18 11:32:45;;;;;;;13.73;7.00;;;;;;;12.55;100.00;98730.53;5110380;28;20411;-79
2022/09/18 11:35:18;;;;;;;16.40;8.77;;;;;;;12.54;100.00;98725.41;5112248;28;20027;-79
2022/09/18 11:38:14;;;;;;;10.68;5.13;;;;;;;12.53;100.00;98723.75;5111720;28;20269;-79
2022/09/18 11:40:48;;;;;;;9.00;4.53;;;;;;;12.42;100.00;98732.31;5068767;28;20098;-79
2022/09/18 11:43:37;;;;;;;9.70;4.15;;;;;;;12.30;100.00;98736.59;5069043;28;20020;-79
2022/09/18 11:46:05;;;;;;;10.07;5.40;;;;;;;12.31;100.00;98745.28;4989783;28;20030;-79